TFM - Tactical Decision Aid
ID: Runway Winds: CIG/VIS Threshold:

KCLE - Cleveland/Hopkins In, OH, US

Updated at: 2143 UTC 17 Jun 2019
Latest TAF at: 2059 UTC 17 Jun 2019

TAF Board

Time2051Z 17/22Z 17/23Z 18/00Z 18/01Z 18/02Z 18/03Z 18/04Z 18/05Z 18/06Z 18/07Z 18/08Z 18/09Z 18/10Z>>
Type OBS PRVL PRVL PRVL PRVL PRVL PRVL PRVL PRVL PRVL PRVL PRVL PRVL PRVL
VIS 10 >6 >6 >6 >6 4 4 4 4 4 4 4 1 1
CIG 250 40 40 40 40 20 20 20 20 20 20 20 8 8
Cover OVC OVC OVC OVC OVC OVC OVC OVC OVC OVC OVC OVC OVC OVC
FltCat VFR VFR VFR VFR VFR MVFR MVFR MVFR MVFR MVFR MVFR MVFR IFR IFR
WX -- -- -- -- -- BR BR BR BR BR BR BR BR BR
WDir 10 360 360 360 360 VRB VRB VRB VRB VRB VRB VRB VRB VRB
WSpd 5 5 5 5 5 0 0 0 0 0 0 0 0 0
WGst -- -- -- -- -- -- -- -- -- -- -- -- -- --

TDA Impact Legend

  None Marginal Slight Moderate High
Visibility (sm) >5 3≤X≤5 1≤X<3 0.5≤X<1 <0.5
Ceiling (100 ft) >30 10≤X≤30 4≤X<10 2≤X<4 <2
Wind Speed (kt) <15 15≤X<25 25≤X<30 ≥30
Wind Gust (kt) <15 15≤X<25 25≤X<35 ≥35
Weather No Wx Reported VCTS -TS,-FZRA TS,FZRA +TS,+FZRA
TAF
KCLE 172059Z 1721/1824 36005KT P6SM OVC040
  FM180200 00000KT 4SM BR OVC020
  FM180900 00000KT 1SM BR OVC008
  FM181300 VRB03KT P6SM BKN025
  FM181700 01005KT P6SM BKN080


METAR
KCLE 172051Z 01005KT 10SM OVC250 21/17 A3001 RMK AO2 SLP160 T02060167 56006
KCLE 171951Z 35006KT 10SM OVC200 21/17 A3002 RMK AO2 SLP163 T02060172
KCLE 171929Z 01006KT 10SM SCT014 21/17 A3002 RMK AO2 T02110172
KCLE 171851Z 36006KT 10SM OVC012 21/18 A3002 RMK AO2 SLP162 T02110178

Radar Display
Forecast Discussion